sensor_id;sensor_type;location;lat;lon;timestamp;P1;durP1;ratioP1;P2;durP2;ratioP2
19727;SDS011;10015;52.530;13.390;2023-04-15T00:01:43;22.83;;;13.20;;
19727;SDS011;10015;52.530;13.390;2023-04-15T00:04:09;25.10;;;14.47;;
19727;SDS011;10015;52.530;13.390;2023-04-15T00:06:35;26.40;;;14.87;;
19727;SDS011;10015;52.530;13.390;2023-04-15T00:09:02;26.83;;;14.20;;
19727;SDS011;10015;52.530;13.390;2023-04-15T00:11:27;29.03;;;14.93;;
19727;SDS011;10015;52.530;13.390;2023-04-15T00:13:53;25.13;;;14.93;;
19727;SDS011;10015;52.530;13.390;2023-04-15T00:16:19;26.17;;;14.97;;
19727;SDS011;10015;52.530;13.390;2023-04-15T00:18:45;25.20;;;14.70;;
19727;SDS011;10015;52.530;13.390;2023-04-15T00:21:11;24.43;;;14.23;;
19727;SDS011;10015;52.530;13.390;2023-04-15T00:23:37;26.07;;;14.50;;
19727;SDS011;10015;52.530;13.390;2023-04-15T00:26:03;27.03;;;14.47;;
19727;SDS011;10015;52.530;13.390;2023-04-15T00:28:29;27.00;;;14.90;;
19727;SDS011;10015;52.530;13.390;2023-04-15T00:30:56;29.83;;;14.87;;
19727;SDS011;10015;52.530;13.390;2023-04-15T00:33:22;27.53;;;15.43;;
19727;SDS011;10015;52.530;13.390;2023-04-15T00:35:48;28.03;;;15.33;;
19727;SDS011;10015;52.530;13.390;2023-04-15T00:38:14;26.07;;;15.03;;
19727;SDS011;10015;52.530;13.390;2023-04-15T00:40:40;28.17;;;16.37;;
19727;SDS011;10015;52.530;13.390;2023-04-15T00:43:06;31.47;;;16.23;;
19727;SDS011;10015;52.530;13.390;2023-04-15T00:45:32;30.20;;;16.37;;
19727;SDS011;10015;52.530;13.390;2023-04-15T00:47:58;31.93;;;16.00;;
19727;SDS011;10015;52.530;13.390;2023-04-15T00:50:24;28.53;;;15.70;;
19727;SDS011;10015;52.530;13.390;2023-04-15T00:52:50;30.63;;;15.93;;
19727;SDS011;10015;52.530;13.390;2023-04-15T00:55:16;30.57;;;16.47;;
19727;SDS011;10015;52.530;13.390;2023-04-15T00:57:42;30.40;;;16.23;;
19727;SDS011;10015;52.530;13.390;2023-04-15T01:00:09;31.60;;;15.97;;
19727;SDS011;10015;52.530;13.390;2023-04-15T01:02:36;29.53;;;16.10;;
19727;SDS011;10015;52.530;13.390;2023-04-15T01:05:02;28.30;;;16.13;;
19727;SDS011;10015;52.530;13.390;2023-04-15T01:07:29;34.40;;;17.57;;
19727;SDS011;10015;52.530;13.390;2023-04-15T01:09:56;32.97;;;16.93;;
19727;SDS011;10015;52.530;13.390;2023-04-15T01:12:22;32.03;;;16.73;;
19727;SDS011;10015;52.530;13.390;2023-04-15T01:14:50;34.03;;;17.70;;
19727;SDS011;10015;52.530;13.390;2023-04-15T01:17:17;33.57;;;17.13;;
19727;SDS011;10015;52.530;13.390;2023-04-15T01:19:44;34.10;;;17.67;;
19727;SDS011;10015;52.530;13.390;2023-04-15T01:22:10;34.60;;;17.33;;
19727;SDS011;10015;52.530;13.390;2023-04-15T01:24:37;38.20;;;18.40;;
19727;SDS011;10015;52.530;13.390;2023-04-15T01:27:03;37.93;;;18.83;;
19727;SDS011;10015;52.530;13.390;2023-04-15T01:29:30;37.23;;;18.43;;
19727;SDS011;10015;52.530;13.390;2023-04-15T01:31:57;37.77;;;19.43;;
19727;SDS011;10015;52.530;13.390;2023-04-15T01:34:43;35.47;;;18.17;;
19727;SDS011;10015;52.530;13.390;2023-04-15T01:37:28;35.53;;;18.47;;
19727;SDS011;10015;52.530;13.390;2023-04-15T01:39:54;35.63;;;17.47;;
19727;SDS011;10015;52.530;13.390;2023-04-15T01:42:21;39.00;;;18.73;;
19727;SDS011;10015;52.530;13.390;2023-04-15T01:44:49;35.63;;;18.43;;
19727;SDS011;10015;52.530;13.390;2023-04-15T01:47:16;37.43;;;19.03;;
19727;SDS011;10015;52.530;13.390;2023-04-15T01:49:44;37.47;;;18.27;;
19727;SDS011;10015;52.530;13.390;2023-04-15T01:52:11;37.00;;;18.17;;
19727;SDS011;10015;52.530;13.390;2023-04-15T01:54:40;37.60;;;18.83;;
19727;SDS011;10015;52.530;13.390;2023-04-15T01:57:08;38.87;;;19.30;;
19727;SDS011;10015;52.530;13.390;2023-04-15T01:59:35;40.03;;;18.60;;
19727;SDS011;10015;52.530;13.390;2023-04-15T02:02:02;41.67;;;19.63;;
19727;SDS011;10015;52.530;13.390;2023-04-15T02:04:30;37.50;;;18.60;;
19727;SDS011;10015;52.530;13.390;2023-04-15T02:06:59;38.90;;;18.30;;
19727;SDS011;10015;52.530;13.390;2023-04-15T02:09:27;38.83;;;19.40;;
19727;SDS011;10015;52.530;13.390;2023-04-15T02:11:54;39.07;;;18.20;;
19727;SDS011;10015;52.530;13.390;2023-04-15T02:14:21;39.60;;;18.83;;
19727;SDS011;10015;52.530;13.390;2023-04-15T02:16:49;39.00;;;19.30;;
19727;SDS011;10015;52.530;13.390;2023-04-15T02:19:16;38.67;;;19.57;;
19727;SDS011;10015;52.530;13.390;2023-04-15T02:21:43;35.23;;;17.80;;
19727;SDS011;10015;52.530;13.390;2023-04-15T02:24:10;42.60;;;19.93;;
19727;SDS011;10015;52.530;13.390;2023-04-15T02:26:41;37.33;;;18.67;;
19727;SDS011;10015;52.530;13.390;2023-04-15T02:29:08;42.57;;;19.90;;
19727;SDS011;10015;52.530;13.390;2023-04-15T02:31:35;41.27;;;19.67;;
19727;SDS011;10015;52.530;13.390;2023-04-15T02:34:05;41.20;;;19.47;;
19727;SDS011;10015;52.530;13.390;2023-04-15T02:36:33;40.00;;;18.43;;
19727;SDS011;10015;52.530;13.390;2023-04-15T02:39:00;43.47;;;19.57;;
19727;SDS011;10015;52.530;13.390;2023-04-15T02:41:29;37.50;;;18.70;;
19727;SDS011;10015;52.530;13.390;2023-04-15T02:43:56;39.27;;;18.97;;
19727;SDS011;10015;52.530;13.390;2023-04-15T02:46:24;40.00;;;18.00;;
19727;SDS011;10015;52.530;13.390;2023-04-15T02:48:51;38.53;;;18.93;;
19727;SDS011;10015;52.530;13.390;2023-04-15T02:51:20;39.70;;;19.13;;
19727;SDS011;10015;52.530;13.390;2023-04-15T02:53:48;39.90;;;18.83;;
19727;SDS011;10015;52.530;13.390;2023-04-15T02:56:15;40.60;;;18.90;;
19727;SDS011;10015;52.530;13.390;2023-04-15T02:58:44;36.93;;;18.33;;
19727;SDS011;10015;52.530;13.390;2023-04-15T03:01:11;37.60;;;18.83;;
19727;SDS011;10015;52.530;13.390;2023-04-15T03:03:40;34.43;;;18.23;;
19727;SDS011;10015;52.530;13.390;2023-04-15T03:06:07;37.60;;;18.43;;
19727;SDS011;10015;52.530;13.390;2023-04-15T03:08:35;40.97;;;19.33;;
19727;SDS011;10015;52.530;13.390;2023-04-15T03:11:02;38.23;;;17.87;;
19727;SDS011;10015;52.530;13.390;2023-04-15T03:13:30;37.20;;;18.60;;
19727;SDS011;10015;52.530;13.390;2023-04-15T03:16:00;37.20;;;18.73;;
19727;SDS011;10015;52.530;13.390;2023-04-15T03:18:29;39.50;;;18.80;;
19727;SDS011;10015;52.530;13.390;2023-04-15T03:21:00;36.00;;;17.97;;
19727;SDS011;10015;52.530;13.390;2023-04-15T03:23:30;35.10;;;17.60;;
19727;SDS011;10015;52.530;13.390;2023-04-15T03:26:00;39.87;;;18.80;;
19727;SDS011;10015;52.530;13.390;2023-04-15T03:28:29;38.80;;;19.83;;
19727;SDS011;10015;52.530;13.390;2023-04-15T03:30:57;37.83;;;18.63;;
19727;SDS011;10015;52.530;13.390;2023-04-15T03:33:25;38.53;;;18.53;;
19727;SDS011;10015;52.530;13.390;2023-04-15T03:35:52;38.10;;;17.93;;
19727;SDS011;10015;52.530;13.390;2023-04-15T03:38:19;39.27;;;18.57;;
19727;SDS011;10015;52.530;13.390;2023-04-15T03:40:46;36.23;;;17.47;;
19727;SDS011;10015;52.530;13.390;2023-04-15T03:43:13;37.37;;;17.93;;
19727;SDS011;10015;52.530;13.390;2023-04-15T03:45:40;39.73;;;18.50;;
19727;SDS011;10015;52.530;13.390;2023-04-15T03:48:07;35.80;;;17.43;;
19727;SDS011;10015;52.530;13.390;2023-04-15T03:50:34;34.60;;;18.03;;
19727;SDS011;10015;52.530;13.390;2023-04-15T03:53:02;37.30;;;18.00;;
19727;SDS011;10015;52.530;13.390;2023-04-15T03:55:29;35.77;;;17.23;;
19727;SDS011;10015;52.530;13.390;2023-04-15T03:57:56;35.50;;;18.23;;
19727;SDS011;10015;52.530;13.390;2023-04-15T04:00:23;34.87;;;17.80;;
19727;SDS011;10015;52.530;13.390;2023-04-15T04:02:50;38.13;;;18.57;;
19727;SDS011;10015;52.530;13.390;2023-04-15T04:05:19;33.90;;;17.60;;
19727;SDS011;10015;52.530;13.390;2023-04-15T04:07:46;37.60;;;18.03;;
19727;SDS011;10015;52.530;13.390;2023-04-15T04:10:13;32.60;;;17.67;;
19727;SDS011;10015;52.530;13.390;2023-04-15T04:12:40;38.33;;;18.30;;
19727;SDS011;10015;52.530;13.390;2023-04-15T04:15:07;36.70;;;17.63;;
19727;SDS011;10015;52.530;13.390;2023-04-15T04:17:35;33.27;;;17.43;;
19727;SDS011;10015;52.530;13.390;2023-04-15T04:20:02;35.63;;;17.83;;
19727;SDS011;10015;52.530;13.390;2023-04-15T04:22:29;34.63;;;17.20;;
19727;SDS011;10015;52.530;13.390;2023-04-15T04:24:56;34.23;;;17.47;;
19727;SDS011;10015;52.530;13.390;2023-04-15T04:27:25;33.43;;;17.17;;
19727;SDS011;10015;52.530;13.390;2023-04-15T04:29:52;33.47;;;16.53;;
19727;SDS011;10015;52.530;13.390;2023-04-15T04:32:19;34.93;;;17.33;;
19727;SDS011;10015;52.530;13.390;2023-04-15T04:34:47;32.60;;;16.77;;
19727;SDS011;10015;52.530;13.390;2023-04-15T04:37:14;34.53;;;17.50;;
19727;SDS011;10015;52.530;13.390;2023-04-15T04:39:41;31.73;;;16.23;;
19727;SDS011;10015;52.530;13.390;2023-04-15T04:42:08;34.50;;;17.20;;
19727;SDS011;10015;52.530;13.390;2023-04-15T04:44:35;28.97;;;15.90;;
19727;SDS011;10015;52.530;13.390;2023-04-15T04:47:03;33.90;;;16.90;;
19727;SDS011;10015;52.530;13.390;2023-04-15T04:49:32;30.73;;;16.27;;
19727;SDS011;10015;52.530;13.390;2023-04-15T04:51:59;34.37;;;16.97;;
19727;SDS011;10015;52.530;13.390;2023-04-15T04:54:26;30.70;;;16.33;;
19727;SDS011;10015;52.530;13.390;2023-04-15T04:56:53;30.50;;;16.67;;
19727;SDS011;10015;52.530;13.390;2023-04-15T04:59:20;32.73;;;17.13;;
19727;SDS011;10015;52.530;13.390;2023-04-15T05:01:47;30.10;;;15.43;;
19727;SDS011;10015;52.530;13.390;2023-04-15T05:04:15;31.70;;;15.53;;
19727;SDS011;10015;52.530;13.390;2023-04-15T05:06:42;30.67;;;15.50;;
19727;SDS011;10015;52.530;13.390;2023-04-15T05:09:09;32.97;;;16.70;;
19727;SDS011;10015;52.530;13.390;2023-04-15T05:11:36;29.13;;;15.63;;
19727;SDS011;10015;52.530;13.390;2023-04-15T05:14:03;30.43;;;16.37;;
19727;SDS011;10015;52.530;13.390;2023-04-15T05:16:30;31.87;;;16.03;;
19727;SDS011;10015;52.530;13.390;2023-04-15T05:18:57;30.63;;;15.60;;
19727;SDS011;10015;52.530;13.390;2023-04-15T05:21:25;26.77;;;15.10;;
19727;SDS011;10015;52.530;13.390;2023-04-15T05:23:53;27.07;;;15.97;;
19727;SDS011;10015;52.530;13.390;2023-04-15T05:26:20;30.40;;;15.63;;
19727;SDS011;10015;52.530;13.390;2023-04-15T05:28:47;25.73;;;15.07;;
19727;SDS011;10015;52.530;13.390;2023-04-15T05:31:15;29.50;;;15.03;;
19727;SDS011;10015;52.530;13.390;2023-04-15T05:33:42;30.27;;;15.90;;
19727;SDS011;10015;52.530;13.390;2023-04-15T05:36:09;27.57;;;14.37;;
19727;SDS011;10015;52.530;13.390;2023-04-15T05:38:37;26.53;;;14.67;;
19727;SDS011;10015;52.530;13.390;2023-04-15T05:41:04;25.27;;;14.30;;
19727;SDS011;10015;52.530;13.390;2023-04-15T05:43:32;26.70;;;14.17;;
19727;SDS011;10015;52.530;13.390;2023-04-15T05:45:59;25.00;;;13.77;;
19727;SDS011;10015;52.530;13.390;2023-04-15T05:48:26;22.60;;;13.47;;
19727;SDS011;10015;52.530;13.390;2023-04-15T05:50:53;24.47;;;13.93;;
19727;SDS011;10015;52.530;13.390;2023-04-15T05:53:20;23.90;;;13.60;;
19727;SDS011;10015;52.530;13.390;2023-04-15T05:55:47;23.93;;;13.50;;
19727;SDS011;10015;52.530;13.390;2023-04-15T05:58:14;22.20;;;14.07;;
19727;SDS011;10015;52.530;13.390;2023-04-15T06:00:42;24.13;;;13.50;;
19727;SDS011;10015;52.530;13.390;2023-04-15T06:03:10;24.23;;;12.93;;
19727;SDS011;10015;52.530;13.390;2023-04-15T06:05:37;21.70;;;13.43;;
19727;SDS011;10015;52.530;13.390;2023-04-15T06:08:04;21.53;;;12.80;;
19727;SDS011;10015;52.530;13.390;2023-04-15T06:10:31;25.17;;;13.20;;
19727;SDS011;10015;52.530;13.390;2023-04-15T06:13:02;21.30;;;12.10;;
19727;SDS011;10015;52.530;13.390;2023-04-15T06:15:29;22.40;;;12.17;;
19727;SDS011;10015;52.530;13.390;2023-04-15T06:17:57;21.27;;;12.17;;
19727;SDS011;10015;52.530;13.390;2023-04-15T06:20:24;21.43;;;13.13;;
19727;SDS011;10015;52.530;13.390;2023-04-15T06:22:51;18.80;;;11.23;;
19727;SDS011;10015;52.530;13.390;2023-04-15T06:25:19;22.20;;;12.07;;
19727;SDS011;10015;52.530;13.390;2023-04-15T06:27:46;19.50;;;11.37;;
19727;SDS011;10015;52.530;13.390;2023-04-15T06:30:13;20.13;;;11.27;;
19727;SDS011;10015;52.530;13.390;2023-04-15T06:32:40;20.20;;;11.47;;
19727;SDS011;10015;52.530;13.390;2023-04-15T06:35:08;18.50;;;11.07;;
19727;SDS011;10015;52.530;13.390;2023-04-15T06:37:35;18.10;;;11.70;;
19727;SDS011;10015;52.530;13.390;2023-04-15T06:40:02;18.93;;;10.93;;
19727;SDS011;10015;52.530;13.390;2023-04-15T06:42:30;21.73;;;11.70;;
19727;SDS011;10015;52.530;13.390;2023-04-15T06:44:58;20.33;;;11.10;;
19727;SDS011;10015;52.530;13.390;2023-04-15T06:47:25;20.63;;;11.50;;
19727;SDS011;10015;52.530;13.390;2023-04-15T06:49:52;19.57;;;10.90;;
19727;SDS011;10015;52.530;13.390;2023-04-15T06:52:19;20.00;;;11.50;;
19727;SDS011;10015;52.530;13.390;2023-04-15T06:54:47;19.43;;;10.87;;
19727;SDS011;10015;52.530;13.390;2023-04-15T06:57:14;16.57;;;10.43;;
19727;SDS011;10015;52.530;13.390;2023-04-15T06:59:41;18.83;;;10.40;;
19727;SDS011;10015;52.530;13.390;2023-04-15T07:02:08;14.90;;;9.63;;
19727;SDS011;10015;52.530;13.390;2023-04-15T07:04:39;16.93;;;9.90;;
19727;SDS011;10015;52.530;13.390;2023-04-15T07:07:06;18.73;;;11.30;;
19727;SDS011;10015;52.530;13.390;2023-04-15T07:09:33;15.03;;;10.03;;
19727;SDS011;10015;52.530;13.390;2023-04-15T07:12:00;15.00;;;9.47;;
19727;SDS011;10015;52.530;13.390;2023-04-15T07:14:28;14.87;;;9.37;;
19727;SDS011;10015;52.530;13.390;2023-04-15T07:16:55;17.30;;;10.50;;
19727;SDS011;10015;52.530;13.390;2023-04-15T07:19:23;13.17;;;9.10;;
19727;SDS011;10015;52.530;13.390;2023-04-15T07:21:50;15.70;;;9.10;;
19727;SDS011;10015;52.530;13.390;2023-04-15T07:24:17;14.70;;;9.60;;
19727;SDS011;10015;52.530;13.390;2023-04-15T07:26:45;15.07;;;9.70;;
19727;SDS011;10015;52.530;13.390;2023-04-15T07:29:12;16.40;;;9.27;;
19727;SDS011;10015;52.530;13.390;2023-04-15T07:31:39;18.07;;;9.30;;
19727;SDS011;10015;52.530;13.390;2023-04-15T07:34:07;15.97;;;9.80;;
19727;SDS011;10015;52.530;13.390;2023-04-15T07:36:34;15.50;;;9.83;;
19727;SDS011;10015;52.530;13.390;2023-04-15T07:39:02;14.27;;;9.67;;
19727;SDS011;10015;52.530;13.390;2023-04-15T07:41:29;18.40;;;10.23;;
19727;SDS011;10015;52.530;13.390;2023-04-15T07:43:57;19.33;;;9.83;;
19727;SDS011;10015;52.530;13.390;2023-04-15T07:46:24;15.60;;;9.83;;
19727;SDS011;10015;52.530;13.390;2023-04-15T07:48:52;15.30;;;10.23;;
19727;SDS011;10015;52.530;13.390;2023-04-15T07:51:20;15.43;;;10.70;;
19727;SDS011;10015;52.530;13.390;2023-04-15T07:53:48;14.70;;;9.97;;
19727;SDS011;10015;52.530;13.390;2023-04-15T07:56:16;14.00;;;9.97;;
19727;SDS011;10015;52.530;13.390;2023-04-15T07:58:43;16.07;;;10.73;;
19727;SDS011;10015;52.530;13.390;2023-04-15T08:01:10;16.67;;;10.33;;
19727;SDS011;10015;52.530;13.390;2023-04-15T08:03:37;15.30;;;10.43;;
19727;SDS011;10015;52.530;13.390;2023-04-15T08:06:05;16.53;;;10.40;;
19727;SDS011;10015;52.530;13.390;2023-04-15T08:08:32;16.47;;;10.73;;
19727;SDS011;10015;52.530;13.390;2023-04-15T08:10:59;20.13;;;10.90;;
19727;SDS011;10015;52.530;13.390;2023-04-15T08:13:26;17.77;;;10.80;;
19727;SDS011;10015;52.530;13.390;2023-04-15T08:16:13;16.93;;;11.00;;
19727;SDS011;10015;52.530;13.390;2023-04-15T08:18:45;16.10;;;10.93;;
19727;SDS011;10015;52.530;13.390;2023-04-15T08:21:13;15.20;;;10.83;;
19727;SDS011;10015;52.530;13.390;2023-04-15T08:23:42;18.33;;;10.83;;
19727;SDS011;10015;52.530;13.390;2023-04-15T08:26:09;17.70;;;11.40;;
19727;SDS011;10015;52.530;13.390;2023-04-15T08:28:39;17.73;;;11.10;;
19727;SDS011;10015;52.530;13.390;2023-04-15T08:31:07;16.90;;;10.80;;
19727;SDS011;10015;52.530;13.390;2023-04-15T08:33:35;16.20;;;11.33;;
19727;SDS011;10015;52.530;13.390;2023-04-15T08:36:02;16.53;;;11.13;;
19727;SDS011;10015;52.530;13.390;2023-04-15T08:38:30;16.33;;;11.20;;
19727;SDS011;10015;52.530;13.390;2023-04-15T08:40:57;19.20;;;11.50;;
19727;SDS011;10015;52.530;13.390;2023-04-15T08:43:32;20.30;;;11.53;;
19727;SDS011;10015;52.530;13.390;2023-04-15T08:46:00;19.60;;;11.50;;
19727;SDS011;10015;52.530;13.390;2023-04-15T08:48:31;22.13;;;11.53;;
19727;SDS011;10015;52.530;13.390;2023-04-15T08:51:01;20.33;;;11.77;;
19727;SDS011;10015;52.530;13.390;2023-04-15T08:53:29;17.27;;;11.40;;
19727;SDS011;10015;52.530;13.390;2023-04-15T08:55:57;20.17;;;12.30;;
19727;SDS011;10015;52.530;13.390;2023-04-15T08:58:28;18.67;;;11.73;;
19727;SDS011;10015;52.530;13.390;2023-04-15T09:00:56;19.50;;;12.03;;
19727;SDS011;10015;52.530;13.390;2023-04-15T09:03:23;20.43;;;11.73;;
19727;SDS011;10015;52.530;13.390;2023-04-15T09:05:50;17.70;;;12.03;;
19727;SDS011;10015;52.530;13.390;2023-04-15T09:08:18;19.80;;;11.73;;
19727;SDS011;10015;52.530;13.390;2023-04-15T09:10:45;18.23;;;11.87;;
19727;SDS011;10015;52.530;13.390;2023-04-15T09:13:12;16.90;;;11.47;;
19727;SDS011;10015;52.530;13.390;2023-04-15T09:15:40;19.07;;;11.80;;
19727;SDS011;10015;52.530;13.390;2023-04-15T09:18:07;17.33;;;11.90;;
19727;SDS011;10015;52.530;13.390;2023-04-15T09:20:39;16.27;;;10.77;;
19727;SDS011;10015;52.530;13.390;2023-04-15T09:23:10;17.60;;;12.27;;
19727;SDS011;10015;52.530;13.390;2023-04-15T09:25:39;18.17;;;11.73;;
19727;SDS011;10015;52.530;13.390;2023-04-15T09:28:10;20.37;;;12.40;;
19727;SDS011;10015;52.530;13.390;2023-04-15T09:30:37;21.33;;;12.13;;
19727;SDS011;10015;52.530;13.390;2023-04-15T09:33:04;17.77;;;11.17;;
19727;SDS011;10015;52.530;13.390;2023-04-15T09:35:33;20.03;;;11.53;;
19727;SDS011;10015;52.530;13.390;2023-04-15T09:38:07;16.97;;;11.10;;
19727;SDS011;10015;52.530;13.390;2023-04-15T09:40:40;16.20;;;11.27;;
19727;SDS011;10015;52.530;13.390;2023-04-15T09:43:08;18.03;;;12.30;;
19727;SDS011;10015;52.530;13.390;2023-04-15T09:45:38;18.60;;;11.90;;
19727;SDS011;10015;52.530;13.390;2023-04-15T09:50:56;16.47;;;11.43;;
19727;SDS011;10015;52.530;13.390;2023-04-15T09:53:24;17.90;;;11.57;;
19727;SDS011;10015;52.530;13.390;2023-04-15T09:55:53;17.07;;;10.93;;
19727;SDS011;10015;52.530;13.390;2023-04-15T09:58:25;17.13;;;10.80;;
19727;SDS011;10015;52.530;13.390;2023-04-15T10:00:57;19.20;;;10.83;;
19727;SDS011;10015;52.530;13.390;2023-04-15T10:03:25;17.17;;;10.37;;
19727;SDS011;10015;52.530;13.390;2023-04-15T10:05:54;17.03;;;11.07;;
19727;SDS011;10015;52.530;13.390;2023-04-15T10:08:23;16.23;;;11.23;;
19727;SDS011;10015;52.530;13.390;2023-04-15T10:10:52;15.50;;;10.70;;
19727;SDS011;10015;52.530;13.390;2023-04-15T10:13:24;16.70;;;11.23;;
19727;SDS011;10015;52.530;13.390;2023-04-15T10:18:26;17.80;;;11.20;;
19727;SDS011;10015;52.530;13.390;2023-04-15T10:20:55;17.53;;;10.90;;
19727;SDS011;10015;52.530;13.390;2023-04-15T10:23:22;15.57;;;11.20;;
19727;SDS011;10015;52.530;13.390;2023-04-15T10:25:51;21.23;;;11.83;;
19727;SDS011;10015;52.530;13.390;2023-04-15T10:28:20;18.17;;;10.60;;
19727;SDS011;10015;52.530;13.390;2023-04-15T10:30:48;21.43;;;11.43;;
19727;SDS011;10015;52.530;13.390;2023-04-15T10:33:16;14.67;;;10.20;;
19727;SDS011;10015;52.530;13.390;2023-04-15T10:35:46;17.43;;;11.50;;
19727;SDS011;10015;52.530;13.390;2023-04-15T10:41:14;19.80;;;12.07;;
19727;SDS011;10015;52.530;13.390;2023-04-15T10:46:36;20.13;;;11.43;;
19727;SDS011;10015;52.530;13.390;2023-04-15T10:49:08;16.27;;;10.77;;
19727;SDS011;10015;52.530;13.390;2023-04-15T10:51:41;16.57;;;10.30;;
19727;SDS011;10015;52.530;13.390;2023-04-15T10:54:14;15.93;;;11.20;;
19727;SDS011;10015;52.530;13.390;2023-04-15T10:56:47;17.97;;;11.00;;
19727;SDS011;10015;52.530;13.390;2023-04-15T11:02:38;14.43;;;10.33;;
19727;SDS011;10015;52.530;13.390;2023-04-15T11:05:18;15.80;;;10.70;;
19727;SDS011;10015;52.530;13.390;2023-04-15T11:07:48;15.97;;;10.30;;
19727;SDS011;10015;52.530;13.390;2023-04-15T11:12:44;16.47;;;10.70;;
19727;SDS011;10015;52.530;13.390;2023-04-15T11:20:41;19.07;;;10.53;;
19727;SDS011;10015;52.530;13.390;2023-04-15T11:23:19;18.37;;;10.87;;
19727;SDS011;10015;52.530;13.390;2023-04-15T11:26:15;16.53;;;10.93;;
19727;SDS011;10015;52.530;13.390;2023-04-15T11:28:43;16.47;;;10.73;;
19727;SDS011;10015;52.530;13.390;2023-04-15T11:31:11;16.17;;;11.20;;
19727;SDS011;10015;52.530;13.390;2023-04-15T11:33:52;17.37;;;10.70;;
19727;SDS011;10015;52.530;13.390;2023-04-15T11:36:24;18.13;;;10.97;;
19727;SDS011;10015;52.530;13.390;2023-04-15T11:38:54;16.70;;;10.97;;
19727;SDS011;10015;52.530;13.390;2023-04-15T11:41:23;18.17;;;11.43;;
19727;SDS011;10015;52.530;13.390;2023-04-15T11:43:50;15.63;;;10.70;;
19727;SDS011;10015;52.530;13.390;2023-04-15T11:46:19;16.27;;;10.13;;
19727;SDS011;10015;52.530;13.390;2023-04-15T11:48:48;19.50;;;11.10;;
19727;SDS011;10015;52.530;13.390;2023-04-15T11:51:15;17.50;;;10.87;;
19727;SDS011;10015;52.530;13.390;2023-04-15T11:53:44;15.43;;;10.70;;
19727;SDS011;10015;52.530;13.390;2023-04-15T11:56:20;15.20;;;10.77;;
19727;SDS011;10015;52.530;13.390;2023-04-15T11:58:50;17.27;;;10.37;;
19727;SDS011;10015;52.530;13.390;2023-04-15T12:01:18;16.80;;;9.90;;
19727;SDS011;10015;52.530;13.390;2023-04-15T12:03:44;16.50;;;10.53;;
19727;SDS011;10015;52.530;13.390;2023-04-15T12:06:12;16.03;;;10.60;;
19727;SDS011;10015;52.530;13.390;2023-04-15T12:11:46;16.57;;;10.43;;
19727;SDS011;10015;52.530;13.390;2023-04-15T12:16:51;16.40;;;10.60;;
19727;SDS011;10015;52.530;13.390;2023-04-15T12:19:23;14.80;;;10.20;;
19727;SDS011;10015;52.530;13.390;2023-04-15T12:22:09;15.07;;;10.07;;
19727;SDS011;10015;52.530;13.390;2023-04-15T12:24:37;16.00;;;10.07;;
19727;SDS011;10015;52.530;13.390;2023-04-15T12:27:09;15.43;;;10.30;;
19727;SDS011;10015;52.530;13.390;2023-04-15T12:29:37;13.97;;;10.23;;
19727;SDS011;10015;52.530;13.390;2023-04-15T12:32:10;14.40;;;9.00;;
19727;SDS011;10015;52.530;13.390;2023-04-15T12:34:41;14.03;;;9.47;;
19727;SDS011;10015;52.530;13.390;2023-04-15T12:37:10;15.80;;;9.73;;
19727;SDS011;10015;52.530;13.390;2023-04-15T12:39:39;14.17;;;9.80;;
19727;SDS011;10015;52.530;13.390;2023-04-15T12:42:06;14.83;;;9.60;;
19727;SDS011;10015;52.530;13.390;2023-04-15T12:44:33;15.87;;;10.03;;
19727;SDS011;10015;52.530;13.390;2023-04-15T12:47:00;14.33;;;9.47;;
19727;SDS011;10015;52.530;13.390;2023-04-15T12:49:26;13.57;;;9.73;;
19727;SDS011;10015;52.530;13.390;2023-04-15T12:51:53;15.83;;;10.53;;
19727;SDS011;10015;52.530;13.390;2023-04-15T12:54:20;15.70;;;10.40;;
19727;SDS011;10015;52.530;13.390;2023-04-15T12:56:47;13.13;;;9.37;;
19727;SDS011;10015;52.530;13.390;2023-04-15T12:59:14;15.13;;;9.63;;
19727;SDS011;10015;52.530;13.390;2023-04-15T13:01:42;14.40;;;9.20;;
19727;SDS011;10015;52.530;13.390;2023-04-15T13:04:09;13.13;;;8.90;;
19727;SDS011;10015;52.530;13.390;2023-04-15T13:06:35;13.80;;;8.83;;
19727;SDS011;10015;52.530;13.390;2023-04-15T13:09:02;11.60;;;8.20;;
19727;SDS011;10015;52.530;13.390;2023-04-15T13:11:29;12.37;;;8.57;;
19727;SDS011;10015;52.530;13.390;2023-04-15T13:13:56;12.83;;;8.20;;
19727;SDS011;10015;52.530;13.390;2023-04-15T13:16:25;11.97;;;8.27;;
19727;SDS011;10015;52.530;13.390;2023-04-15T13:18:51;13.77;;;8.60;;
19727;SDS011;10015;52.530;13.390;2023-04-15T13:21:17;13.73;;;8.57;;
19727;SDS011;10015;52.530;13.390;2023-04-15T13:23:43;12.33;;;8.13;;
19727;SDS011;10015;52.530;13.390;2023-04-15T13:26:10;11.67;;;8.30;;
19727;SDS011;10015;52.530;13.390;2023-04-15T13:28:35;10.83;;;7.90;;
19727;SDS011;10015;52.530;13.390;2023-04-15T13:31:02;12.40;;;8.30;;
19727;SDS011;10015;52.530;13.390;2023-04-15T13:33:29;13.93;;;7.77;;
19727;SDS011;10015;52.530;13.390;2023-04-15T13:35:55;10.67;;;7.77;;
19727;SDS011;10015;52.530;13.390;2023-04-15T13:38:21;10.37;;;7.53;;
19727;SDS011;10015;52.530;13.390;2023-04-15T13:40:48;12.77;;;8.27;;
19727;SDS011;10015;52.530;13.390;2023-04-15T13:43:14;14.83;;;7.63;;
19727;SDS011;10015;52.530;13.390;2023-04-15T13:45:41;10.90;;;7.70;;
19727;SDS011;10015;52.530;13.390;2023-04-15T13:48:08;11.90;;;7.27;;
19727;SDS011;10015;52.530;13.390;2023-04-15T13:50:34;10.30;;;7.27;;
19727;SDS011;10015;52.530;13.390;2023-04-15T13:53:00;9.67;;;6.80;;
19727;SDS011;10015;52.530;13.390;2023-04-15T13:55:26;11.47;;;7.60;;
19727;SDS011;10015;52.530;13.390;2023-04-15T13:57:52;11.47;;;7.20;;
19727;SDS011;10015;52.530;13.390;2023-04-15T14:00:18;11.93;;;7.83;;
19727;SDS011;10015;52.530;13.390;2023-04-15T14:02:44;11.80;;;7.63;;
19727;SDS011;10015;52.530;13.390;2023-04-15T14:05:10;10.13;;;7.17;;
19727;SDS011;10015;52.530;13.390;2023-04-15T14:07:36;10.13;;;7.33;;
19727;SDS011;10015;52.530;13.390;2023-04-15T14:10:02;11.53;;;7.90;;
19727;SDS011;10015;52.530;13.390;2023-04-15T14:12:28;11.73;;;8.17;;
19727;SDS011;10015;52.530;13.390;2023-04-15T14:14:55;11.93;;;8.47;;
19727;SDS011;10015;52.530;13.390;2023-04-15T14:17:20;10.40;;;7.80;;
19727;SDS011;10015;52.530;13.390;2023-04-15T14:19:46;12.40;;;7.70;;
19727;SDS011;10015;52.530;13.390;2023-04-15T14:22:12;13.07;;;7.97;;
19727;SDS011;10015;52.530;13.390;2023-04-15T14:24:38;12.17;;;8.17;;
19727;SDS011;10015;52.530;13.390;2023-04-15T14:27:05;10.57;;;7.20;;
19727;SDS011;10015;52.530;13.390;2023-04-15T14:29:32;9.20;;;7.03;;
19727;SDS011;10015;52.530;13.390;2023-04-15T14:31:58;9.03;;;6.53;;
19727;SDS011;10015;52.530;13.390;2023-04-15T14:34:25;10.40;;;6.67;;
19727;SDS011;10015;52.530;13.390;2023-04-15T14:36:51;9.40;;;6.53;;
19727;SDS011;10015;52.530;13.390;2023-04-15T14:39:19;13.40;;;7.07;;
19727;SDS011;10015;52.530;13.390;2023-04-15T14:41:46;10.80;;;6.90;;
19727;SDS011;10015;52.530;13.390;2023-04-15T14:44:12;10.93;;;7.43;;